createdAt,value
2023-05-16T00:00:28.411Z,5.93
2023-05-16T00:05:31.517Z,4.50
2023-05-16T00:10:34.778Z,6.17
2023-05-16T00:15:39.723Z,5.77
2023-05-16T00:20:43.084Z,6.90
2023-05-16T00:25:46.974Z,7.03
2023-05-16T00:30:49.064Z,6.97
2023-05-16T00:35:51.726Z,3.60
2023-05-16T00:40:53.834Z,5.03
2023-05-16T00:45:58.091Z,11.10
2023-05-16T00:51:01.401Z,10.40
2023-05-16T00:56:03.540Z,5.20
2023-05-16T01:01:06.367Z,3.87
2023-05-16T01:06:08.498Z,4.80
2023-05-16T01:11:27.013Z,4.00
2023-05-16T01:16:28.922Z,3.50
2023-05-16T01:21:48.543Z,4.40
2023-05-16T01:26:51.757Z,3.67
2023-05-16T01:31:53.753Z,2.80
2023-05-16T01:37:32.396Z,4.37
2023-05-16T01:42:42.698Z,2.67
2023-05-16T01:47:51.586Z,4.50
2023-05-16T01:53:04.044Z,3.30
2023-05-16T01:58:08.714Z,4.00
2023-05-16T02:03:10.796Z,3.00
2023-05-16T02:08:13.765Z,3.73
2023-05-16T02:13:15.805Z,5.47
2023-05-16T02:18:18.824Z,4.93
2023-05-16T02:23:20.675Z,4.73
2023-05-16T02:28:22.995Z,4.37
2023-05-16T02:33:27.103Z,4.27
2023-05-16T02:38:29.046Z,4.03
2023-05-16T02:43:31.264Z,3.47
2023-05-16T02:48:33.172Z,3.77
2023-05-16T02:53:35.038Z,2.70
2023-05-16T02:58:36.987Z,4.03
2023-05-16T03:03:39.033Z,2.63
2023-05-16T03:08:41.595Z,3.43
2023-05-16T03:13:43.456Z,3.53
2023-05-16T03:18:45.495Z,9.53
2023-05-16T03:23:47.480Z,3.07
2023-05-16T03:28:49.557Z,6.50
2023-05-16T03:33:51.533Z,3.80
2023-05-16T03:38:53.551Z,3.27
2023-05-16T03:43:55.621Z,2.83
2023-05-16T03:48:57.615Z,3.13
2023-05-16T03:53:59.551Z,3.10
2023-05-16T03:59:01.578Z,5.00
2023-05-16T04:04:03.721Z,4.57
2023-05-16T04:09:06.635Z,4.83
2023-05-16T04:14:08.666Z,4.17
2023-05-16T04:19:10.627Z,3.17
2023-05-16T04:24:12.750Z,6.07
2023-05-16T04:29:14.759Z,4.90
2023-05-16T04:34:16.904Z,7.50
2023-05-16T04:39:18.887Z,4.40
2023-05-16T04:44:21.316Z,4.60
2023-05-16T04:49:23.495Z,10.73
2023-05-16T04:54:26.530Z,3.60
2023-05-16T04:59:28.434Z,5.70
2023-05-16T05:04:32.616Z,5.77
2023-05-16T05:09:34.577Z,5.70
2023-05-16T05:14:36.452Z,11.47
2023-05-16T05:19:38.453Z,4.80
2023-05-16T05:24:40.778Z,10.43
2023-05-16T05:29:42.794Z,10.70
2023-05-16T05:34:45.082Z,12.13
2023-05-16T05:39:47.259Z,18.13
2023-05-16T05:44:50.065Z,19.50
2023-05-16T05:49:52.335Z,15.87
2023-05-16T05:54:54.744Z,10.83
2023-05-16T05:59:56.811Z,14.93
2023-05-16T06:05:01.473Z,11.63
2023-05-16T06:10:08.410Z,15.73
2023-05-16T06:15:11.114Z,14.50
2023-05-16T06:20:13.405Z,17.63
2023-05-16T06:25:15.517Z,19.77
2023-05-16T06:30:17.594Z,20.93
2023-05-16T06:35:19.462Z,16.57
2023-05-16T06:40:21.491Z,15.30
2023-05-16T06:45:23.496Z,25.67
2023-05-16T06:50:25.389Z,23.73
2023-05-16T06:55:27.616Z,23.00
2023-05-16T07:00:29.638Z,19.03
2023-05-16T07:05:31.587Z,22.77
2023-05-16T07:10:33.536Z,19.43
2023-05-16T07:15:35.659Z,25.90
2023-05-16T07:20:37.629Z,20.27
2023-05-16T07:25:39.800Z,26.60
2023-05-16T07:30:41.742Z,17.60
2023-05-16T07:35:43.932Z,16.17
2023-05-16T07:40:46.022Z,23.53
2023-05-16T07:45:48.018Z,29.93
2023-05-16T07:50:50.048Z,16.80
2023-05-16T07:55:52.088Z,17.80
2023-05-16T08:00:54.055Z,16.90
2023-05-16T08:05:56.105Z,15.13
2023-05-16T08:10:58.138Z,18.10
2023-05-16T08:16:00.154Z,19.40
2023-05-16T08:21:02.287Z,16.60
2023-05-16T08:26:04.357Z,14.93
2023-05-16T08:31:06.369Z,15.47
2023-05-16T08:36:10.161Z,12.17
2023-05-16T08:41:12.250Z,15.23
2023-05-16T08:46:14.280Z,12.80
2023-05-16T08:51:18.870Z,15.20
2023-05-16T08:56:22.404Z,10.73
2023-05-16T09:01:24.336Z,11.10
2023-05-16T09:06:26.948Z,8.00
2023-05-16T09:11:29.204Z,12.97
2023-05-16T09:16:31.445Z,12.60
2023-05-16T09:21:34.972Z,17.23
2023-05-16T09:26:39.154Z,13.20
2023-05-16T09:31:41.293Z,11.57
2023-05-16T09:36:44.115Z,14.30
2023-05-16T09:41:46.103Z,12.33
2023-05-16T09:46:48.175Z,27.33
2023-05-16T09:51:50.204Z,18.57
2023-05-16T09:56:52.861Z,13.53
2023-05-16T10:01:57.225Z,17.40
2023-05-16T10:07:01.956Z,17.60
2023-05-16T10:12:08.299Z,17.43
2023-05-16T10:17:14.319Z,20.23
2023-05-16T10:22:17.520Z,17.17
2023-05-16T10:27:38.336Z,22.20
2023-05-16T10:39:18.693Z,21.00
2023-05-16T10:50:48.364Z,25.83
2023-05-16T11:02:55.240Z,25.20
2023-05-16T11:13:57.662Z,23.43
2023-05-16T11:19:10.173Z,22.33
2023-05-16T11:24:34.839Z,19.57
2023-05-16T11:29:48.980Z,20.93
2023-05-16T11:35:00.381Z,21.33
2023-05-16T11:45:29.393Z,24.70
2023-05-16T11:50:39.133Z,15.87
2023-05-16T12:12:13.103Z,15.53
2023-05-16T12:17:15.557Z,14.80
2023-05-16T12:22:18.835Z,12.80
2023-05-16T12:27:26.369Z,11.83
2023-05-16T12:32:28.766Z,17.07
2023-05-16T12:37:33.663Z,8.87
2023-05-16T12:42:38.512Z,10.17
2023-05-16T12:47:40.722Z,10.73
2023-05-16T12:52:55.149Z,9.43
2023-05-16T12:58:02.048Z,8.17
2023-05-16T13:03:10.526Z,8.10
2023-05-16T13:08:12.811Z,7.50
2023-05-16T13:13:25.018Z,6.90
2023-05-16T13:18:37.586Z,10.20
2023-05-16T13:23:45.361Z,11.10
2023-05-16T13:28:47.550Z,7.17
2023-05-16T13:33:49.781Z,12.40
2023-05-16T13:38:52.427Z,8.60
2023-05-16T13:43:54.518Z,10.27
2023-05-16T13:48:56.750Z,10.40
2023-05-16T13:53:58.965Z,9.87
2023-05-16T13:59:05.740Z,11.23
2023-05-16T14:04:09.736Z,10.57
2023-05-16T14:09:13.464Z,8.77
2023-05-16T14:14:15.879Z,9.00
2023-05-16T14:19:19.590Z,10.10
2023-05-16T14:24:22.508Z,10.10
2023-05-16T14:29:25.480Z,12.47
2023-05-16T14:34:27.602Z,10.23
2023-05-16T14:39:29.626Z,13.87
2023-05-16T14:44:31.732Z,9.57
2023-05-16T14:49:33.771Z,9.23
2023-05-16T14:54:36.859Z,8.90
2023-05-16T14:59:38.965Z,8.87
2023-05-16T15:04:41.085Z,14.50
2023-05-16T15:09:43.146Z,14.20
2023-05-16T15:14:46.373Z,8.63
2023-05-16T15:19:49.184Z,9.53
2023-05-16T15:24:51.239Z,5.80
2023-05-16T15:29:53.311Z,4.13
2023-05-16T15:34:56.441Z,5.33
2023-05-16T15:39:59.740Z,4.70
2023-05-16T15:45:03.703Z,3.97
2023-05-16T15:50:06.350Z,4.27
2023-05-16T15:55:08.917Z,5.73
2023-05-16T16:00:11.932Z,2.90
2023-05-16T16:05:13.886Z,5.90
2023-05-16T16:10:16.091Z,6.60
2023-05-16T16:15:19.769Z,3.90
2023-05-16T16:20:21.973Z,5.00
2023-05-16T16:25:24.150Z,5.87
2023-05-16T16:30:27.239Z,4.20
2023-05-16T16:35:29.645Z,4.93
2023-05-16T16:40:31.940Z,5.20
2023-05-16T16:45:34.066Z,3.37
2023-05-16T16:50:36.100Z,6.30
2023-05-16T16:55:40.712Z,7.20
2023-05-16T17:00:43.353Z,8.17
2023-05-16T17:05:45.440Z,5.63
2023-05-16T17:10:47.662Z,6.20
2023-05-16T17:15:49.708Z,8.03
2023-05-16T17:20:53.641Z,10.97
2023-05-16T17:25:55.706Z,7.33
2023-05-16T17:30:57.747Z,6.40
2023-05-16T17:35:59.704Z,4.83
2023-05-16T17:41:01.852Z,4.97
2023-05-16T17:46:04.065Z,3.43
2023-05-16T17:51:06.926Z,4.40
2023-05-16T17:56:09.293Z,6.00
2023-05-16T18:01:11.529Z,10.80
2023-05-16T18:06:13.684Z,5.23
2023-05-16T18:11:18.387Z,3.50
2023-05-16T18:16:20.484Z,3.17
2023-05-16T18:21:22.894Z,10.50
2023-05-16T18:26:26.105Z,7.93
2023-05-16T18:31:28.158Z,4.33
2023-05-16T18:36:30.866Z,3.27
2023-05-16T18:41:33.623Z,1.93
2023-05-16T18:46:36.876Z,3.07
2023-05-16T18:51:43.645Z,2.73
2023-05-16T18:56:49.392Z,6.53
2023-05-16T19:02:01.056Z,3.77
2023-05-16T19:07:07.942Z,3.13
2023-05-16T19:12:15.128Z,4.23
2023-05-16T19:17:18.899Z,5.40
2023-05-16T19:22:23.777Z,2.43
2023-05-16T19:27:29.510Z,5.30
2023-05-16T19:32:36.145Z,4.20
2023-05-16T19:37:40.927Z,3.23
2023-05-16T19:42:44.590Z,3.83
2023-05-16T19:47:49.798Z,6.40
2023-05-16T19:52:52.939Z,5.23
2023-05-16T19:57:57.834Z,3.90
2023-05-16T20:03:02.012Z,3.57
2023-05-16T20:08:05.124Z,7.90
2023-05-16T20:13:11.142Z,4.17
2023-05-16T20:18:17.376Z,4.60
2023-05-16T20:23:23.105Z,5.07
2023-05-16T20:28:26.995Z,3.63
2023-05-16T20:33:30.923Z,4.50
2023-05-16T20:38:33.971Z,6.33
2023-05-16T20:43:38.809Z,1.33
2023-05-16T20:48:41.961Z,2.70
2023-05-16T20:53:46.906Z,4.00
2023-05-16T20:58:49.939Z,2.37
2023-05-16T21:03:56.323Z,2.23
2023-05-16T21:08:58.904Z,4.07
2023-05-16T21:14:01.609Z,5.43
2023-05-16T21:19:04.767Z,3.20
2023-05-16T21:24:07.489Z,3.90
2023-05-16T21:29:10.033Z,4.00
2023-05-16T21:34:15.266Z,2.23
2023-05-16T21:39:18.826Z,4.93
2023-05-16T21:44:22.439Z,2.23
2023-05-16T21:49:25.247Z,5.10
2023-05-16T21:54:28.061Z,1.83
2023-05-16T21:59:31.474Z,8.20
2023-05-16T22:04:35.088Z,1.90
2023-05-16T22:09:38.062Z,4.50
2023-05-16T22:14:41.343Z,10.47
2023-05-16T22:19:44.192Z,2.67
2023-05-16T22:24:48.711Z,3.40
2023-05-16T22:29:53.359Z,8.23
2023-05-16T22:34:56.332Z,1.93
2023-05-16T22:40:00.298Z,10.20
2023-05-16T22:45:04.245Z,6.97
2023-05-16T22:50:13.031Z,2.07
2023-05-16T22:55:17.146Z,2.37
2023-05-16T23:00:25.181Z,6.30
2023-05-16T23:05:29.448Z,2.80
2023-05-16T23:10:33.942Z,3.80
2023-05-16T23:15:38.971Z,12.17
2023-05-16T23:20:43.304Z,4.57
2023-05-16T23:25:48.922Z,2.80
2023-05-16T23:30:53.326Z,2.73
2023-05-16T23:35:57.976Z,36.87
2023-05-16T23:41:01.547Z,4.17
2023-05-16T23:46:05.635Z,2.80
2023-05-16T23:51:09.367Z,2.70
2023-05-16T23:56:14.858Z,4.30
